May 17, 2022

Time Code Weather Temp. Visibility Clouds Wind METAR/SPECI
6:00 am
V
45 °F 30 mi - 340°   340° 13 18 kt METAR CYYC 171200Z 34013G18KT 30SM FEW160 SCT220 07/00 A2992 RMK AC2CI1 SLP140
5:00 am
V
46 °F 15 mi - 340°   340° 16 21 kt METAR CYYC 171100Z 34016G21KT 15SM FEW160 SCT220 08/02 A2990 RMK AC1CI2 SLP134 DENSITY ALT 3700FT
4:00 am
V
52 °F 15 mi 22,000 ft 340°   340° 17 kt METAR CYYC 171000Z 34017KT 15SM SCT110 BKN220 11/00 A2987 RMK AC3CI4 SLP121 DENSITY ALT 4000FT
3:00 am
V
54 °F 15 mi 11,000 ft 330°   330° 10 16 kt METAR CYYC 170900Z 33010G16KT 15SM BKN110 12/M01 A2983 RMK AC6 SLP104 DENSITY ALT 4300FT
2:00 am
V
54 °F 15 mi 11,000 ft 300°   300° 10 17 kt METAR CYYC 170800Z 30010G17KT 15SM BKN110 12/00 A2982 RMK AC5 SLP101 DENSITY ALT 4200FT
1:00 am
V
52 °F 15 mi 22,000 ft 300°   300° 7 kt METAR CYYC 170700Z 30007KT 15SM SCT150 BKN220 11/01 A2980 RMK AC3CI2 SLP098 DENSITY ALT 4200FT
12:00 am
V
54 °F 15 mi 23,000 ft 280°   280° 11 19 kt METAR CYYC 170600Z 28011G19KT 15SM BKN230 12/01 A2978 RMK CI5 SLP089 DENSITY ALT 4300FT

May 16, 2022

Time Code Weather Temp. Visibility Clouds Wind METAR/SPECI
11:00 pm
V
55 °F 15 mi - 290°   290° 15 21 kt METAR CYYC 170500Z 29015G21KT 15SM FEW220 13/01 A2978 RMK CI1 CI TR SLP087 DENSITY ALT 4500FT
10:00 pm
V
59 °F 15 mi - 280°   280° 11 kt METAR CYYC 170400Z 28011KT 15SM FEW085 SCT190 15/M00 A2977 RMK AC1AC2 SLP082 DENSITY ALT 4700FT
9:00 pm
V
63 °F 20 mi 23,000 ft 280°   280° 14 20 kt METAR CYYC 170300Z 28014G20KT 20SM FEW082 SCT190 BKN230 17/M01 A2975 RMK AC1AC2CI3 SLP076 DENSITY ALT 4900FT
8:00 pm
V
66 °F 30 mi 20,000 ft 300°   300° 14 kt METAR CYYC 170200Z 30014KT 30SM FEW082 BKN200 BKN260 19/M02 A2974 RMK AC2CI4CI1 SLP072 DENSITY ALT 5100FT
7:00 pm
V
68 °F 30 mi 30,000 ft 280°   280° 13 19 kt METAR CYYC 170100Z 28013G19KT 30SM FEW080 SCT230 BKN300 20/M02 A2973 RMK AC1CC3CI3 SLP072 DENSITY ALT 5300FT
6:00 pm
V
68 °F 30 mi 30,000 ft 280°   280° 9 15 kt METAR CYYC 170000Z 28009G15KT 30SM FEW080 SCT210 BKN300 20/M03 A2974 RMK AC2CC2CI3 SLP078 DENSITY ALT 5300FT
5:00 pm
V
68 °F 30 mi 18,000 ft 270°   270° 6 kt METAR CYYC 162300Z 27006KT 30SM FEW080 BKN180 BKN300 20/M04 A2975 RMK AC2AC3CI2 SLP082 DENSITY ALT 5200FT
4:00 pm
V
68 °F 40 mi 21,000 ft 290°   290° 12 19 kt METAR CYYC 162200Z 29012G19KT 250V310 40SM FEW080 BKN210 BKN300 20/M03 A2976 RMK AC2CC3CI2 SLP082 DENSITY ALT 5200FT
3:00 pm
V
68 °F 40 mi 21,000 ft 270°   270° 11 kt METAR CYYC 162100Z 27011KT 240V310 40SM SCT080 BKN210 BKN300 20/M03 A2976 RMK AC3CI2CI1 SLP082 DENSITY ALT 5200FT
2:00 pm
V
66 °F 40 mi 21,000 ft 270°   270° 12 18 kt METAR CYYC 162000Z 27012G18KT 40SM SCT080 BKN210 BKN300 19/M03 A2978 RMK AC3CI2CI2 SLP088 DENSITY ALT 5100FT
1:00 pm
V
64 °F 40 mi 30,000 ft 290°   290° 9 15 kt METAR CYYC 161900Z 29009G15KT 250V320 40SM SCT080 BKN300 18/M02 A2978 RMK AC3CI4 SLP088 DENSITY ALT 5000FT
12:00 pm
V
64 °F 40 mi 30,000 ft 270°   270° 11 17 kt METAR CYYC 161800Z 27011G17KT 210V290 40SM FEW078 BKN300 18/M02 A2980 RMK AC2CI4 SLP094 DENSITY ALT 5000FT
11:00 am
V
64 °F 40 mi - 290°   290° 16 kt METAR CYYC 161700Z 29016KT 40SM FEW055 SCT300 18/M02 A2980 RMK SC1CI2 SLP092 DENSITY ALT 4900FT
10:00 am
V
63 °F 40 mi 30,000 ft 300°   300° 12 18 kt METAR CYYC 161600Z 30012G18KT 40SM FEW050 BKN300 17/M00 A2980 RMK SC1CI6 SC TR SLP093 DENSITY ALT 4800FT
9:00 am
V
59 °F 40 mi 30,000 ft 300°   300° 12 kt METAR CYYC 161500Z 30012KT 40SM FEW050 BKN300 15/02 A2981 RMK SC1CI6 SC TR SLP096 DENSITY ALT 4600FT
8:00 am
V
54 °F 40 mi 30,000 ft 260°   260° 5 kt METAR CYYC 161400Z 26005KT 230V300 40SM FEW050 BKN300 12/02 A2981 RMK SC1CI6 SC TR SLP100 DENSITY ALT 4300FT
7:00 am
V
48 °F 40 mi - 230°   230° 8 kt METAR CYYC 161300Z 23008KT 40SM FEW090 SCT250 09/02 A2981 RMK AC1CI3 AC TR SLP103 DENSITY ALT 3900FT
6:34 am
V
55 °F 30 mi - 290°   290° 13 kt METAR CYYC 161234Z 29013KT 210V300 30SM FEW085 FEW230 13/01 A2980 RMK AC1CI1 AC TR WSHFT 1226 SLP094 DENSITY ALT 4400FT
6:00 am
V
45 °F 30 mi - 220°   220° 7 kt METAR CYYC 161200Z 22007KT 30SM FEW090 FEW230 07/02 A2980 RMK AC1CI1 AC TR CI TR SLP103 DENSITY ALT 3700FT
5:00 am
V
48 °F 20 mi - Var   Var 2 kt METAR CYYC 161100Z VRB02KT 20SM FEW110 09/01 A2981 RMK AC1 AC TR SLP104 DENSITY ALT 3900FT
4:00 am
V
50 °F 15 mi - 230°   230° 5 kt METAR CYYC 161000Z 23005KT 200V280 15SM FEW110 FEW170 10/02 A2980 RMK AC1AC1 AC TR AC TR SLP100 DENSITY ALT 4000FT
3:00 am
V
52 °F 15 mi - 250°   250° 3 kt METAR CYYC 160900Z 25003KT 15SM FEW140 11/02 A2980 RMK AC2 SLP101 DENSITY ALT 4200FT
2:00 am
V
54 °F 10 mi 14,000 ft 260°   260° 2 kt METAR CYYC 160800Z 26002KT 10SM BKN140 12/01 A2981 RMK AC5 SLP103 DENSITY ALT 4200FT
1:00 am
V
54 °F 15 mi 15,000 ft 320°   320° 5 kt METAR CYYC 160700Z 32005KT 15SM FEW097 BKN150 12/00 A2981 RMK AC2AC3 SLP103 DENSITY ALT 4300FT
12:00 am
V
57 °F 15 mi 9,100 ft 310°   310° 4 kt METAR CYYC 160600Z 31004KT 15SM BKN091 BKN170 BKN220 14/M00 A2981 RMK AC5AC1CI1 AC TR SLP101 DENSITY ALT 4500FT

May 15, 2022

Time Code Weather Temp. Visibility Clouds Wind METAR/SPECI
11:00 pm
V
61 °F 10 mi 7,300 ft 220°   220° 8 kt METAR CYYC 160500Z 22008KT 10SM BKN073 BKN083 BKN110 16/M00 A2983 RMK AC5AC1AC2 AC TR SLP107 DENSITY ALT 4700FT
10:00 pm
V
63 °F 10 mi 15,000 ft 230°   230° 7 kt METAR CYYC 160400Z 23007KT 10SM FEW120 OVC150 17/M01 A2983 RMK AC2AS6 SLP107 DENSITY ALT 4800FT
9:00 pm
V
63 °F 15 mi 11,000 ft 150°   150° 7 kt METAR CYYC 160300Z 15007KT 130V200 15SM FEW084 OVC110 17/M02 A2984 RMK AC1AS8 AC TR SLP113 DENSITY ALT 4800FT
8:00 pm
V
63 °F 20 mi 16,000 ft 170°   170° 5 kt METAR CYYC 160200Z 17005KT 20SM FEW120 BKN160 BKN230 17/M04 A2985 RMK AC2AS3CI2 SLP118 DENSITY ALT 4700FT
7:00 pm
V
63 °F 40 mi 23,000 ft 200°   200° 5 kt METAR CYYC 160100Z 20005KT 170V230 40SM FEW100 BKN230 17/M03 A2987 RMK AC2CI4 ROTOR CLD SW ACSL SLP127 DENSITY ALT 4800FT
6:00 pm
V
64 °F 40 mi 23,000 ft 050°   050° 2 kt METAR CYYC 160000Z 05002KT 40SM SCT090 BKN230 18/M03 A2989 RMK AC3CI4 ROTOR CLD SW SLP137 DENSITY ALT 4800FT
5:00 pm
V
63 °F 40 mi 23,000 ft Var   Var 2 kt METAR CYYC 152300Z VRB02KT 40SM SCT080 BKN230 17/M04 A2992 RMK AC3CI2 ACSL SLP148 DENSITY ALT 4700FT
4:00 pm
V
63 °F 40 mi 23,000 ft Var   Var 8 kt METAR CYYC 152200Z VRB08KT 40SM SCT085 BKN230 17/M04 A2994 RMK AC3CI2 SLP153 DENSITY ALT 4700FT
3:00 pm
V
61 °F 40 mi 23,000 ft 240°   240° 5 kt METAR CYYC 152100Z 24005KT 180V270 40SM SCT085 BKN230 16/M05 A2996 RMK AC4CI1 SLP165 DENSITY ALT 4500FT
2:00 pm
V
61 °F 40 mi 23,000 ft 210°   210° 6 kt METAR CYYC 152000Z 21006KT 140V270 40SM SCT086 BKN230 16/M03 A2997 RMK CU3CI2 SLP164 DENSITY ALT 4600FT
1:28 pm
V
61 °F 40 mi 23,000 ft Var   Var 10 15 kt METAR CYYC 151928Z VRB10G15KT 40SM SCT086 BKN230 16/M04 A2999 RMK CU3CI2 WSHFT 1916 SLP170 DENSITY ALT 4500FT
1:00 pm
V
59 °F 40 mi 23,000 ft 230°   230° 4 17 kt METAR CYYC 151900Z 23004G17KT 170V280 40SM FEW084 FEW180 BKN230 15/M05 A3000 RMK CU2AC1CI3 AC TR SLP172 DENSITY ALT 4400FT
12:00 pm
V
59 °F 40 mi 23,000 ft 180°   180° 8 kt METAR CYYC 151800Z 18008KT 110V200 40SM FEW076 FEW180 BKN230 15/M04 A3001 RMK CU1AC1CI4 SLP177 DENSITY ALT 4400FT
11:00 am
V
57 °F 40 mi 23,000 ft 210°   210° 5 kt METAR CYYC 151700Z 21005KT 170V280 40SM FEW073 FEW180 BKN230 14/M03 A3003 RMK CU1AC1CI6 CU TR SLP183 DENSITY ALT 4200FT
10:00 am
V
55 °F 40 mi 23,000 ft 270°   270° 6 kt METAR CYYC 151600Z 27006KT 40SM FEW073 FEW180 OVC230 13/M05 A3004 RMK CU1AC1CI7 CU TR SLP187 DENSITY ALT 4100FT
9:00 am
V
54 °F 40 mi 23,000 ft 190°   190° 5 kt METAR CYYC 151500Z 19005KT 100V220 40SM FEW180 OVC230 12/M03 A3004 RMK AC1CC8 AC TR SLP187 DENSITY ALT 4000FT
8:00 am
V
50 °F 40 mi 23,000 ft Var   000° 0 kt METAR CYYC 151400Z 00000KT 40SM FEW180 OVC230 10/M04 A3005 RMK AC2CC6 SLP189 DENSITY ALT 3800FT
7:00 am
V
46 °F 40 mi 23,000 ft Var   000° 0 kt METAR CYYC 151300Z 00000KT 40SM FEW100 FEW150 BKN230 08/M03 A3004 RMK AC1AC1CI5 AC TR AC TR SLP189
Older data

Download our app

Easy access to all aviation weather on your mobile phone and tablet.
With many features not available on the website, like offline support and a personal airport list.